Time,TemperatureF,DewpointF,PressureIn,WindDirection,WindDirectionDegrees,WindSpeedMPH,WindSpeedGustMPH,Humidity,HourlyPrecipIn,Conditions,Clouds,dailyrainin,SoftwareType,DateUTC
2013-05-06 00:02:00,60.3,49.3,29.95,SE,135,0.0,0.0,67,0.00,RA,FEW,0.00,WeatherDisplay:10.37,2013-05-06 05:02:00,
2013-05-06 00:07:00,60.1,49.1,29.95,SE,135,0.0,0.0,67,0.00,RA,FEW,0.00,WeatherDisplay:10.37,2013-05-06 05:07:00,
2013-05-06 00:13:00,60.1,49.5,29.95,West,270,0.0,0.0,68,0.00,OVC,FEW,0.00,WeatherDisplay:10.37,2013-05-06 05:13:00,
2013-05-06 00:18:00,60.1,49.9,29.95,West,270,0.0,0.0,69,0.00,OVC,FEW,0.00,WeatherDisplay:10.37,2013-05-06 05:18:00,
2013-05-06 00:24:00,60.1,49.9,29.95,West,270,0.0,0.0,69,0.00,OVC,FEW,0.00,WeatherDisplay:10.37,2013-05-06 05:24:00,
2013-05-06 00:30:00,59.7,49.5,29.95,West,270,0.0,0.0,69,0.00,OVC,FEW,0.00,WeatherDisplay:10.37,2013-05-06 05:30:00,
2013-05-06 00:35:00,59.7,50.3,29.95,West,270,0.0,0.0,71,0.00,OVC,FEW,0.00,WeatherDisplay:10.37,2013-05-06 05:35:00,
2013-05-06 00:41:00,59.5,50.1,29.96,SE,135,0.0,0.0,71,0.00,OVC,FEW,0.00,WeatherDisplay:10.37,2013-05-06 05:41:00,
2013-05-06 00:46:00,59.2,49.8,29.96,SE,135,0.0,0.0,71,0.00,OVC,FEW,0.00,WeatherDisplay:10.37,2013-05-06 05:46:00,
2013-05-06 00:52:00,59.2,49.8,29.96,SE,135,0.0,0.0,71,0.00,OVC,FEW,0.00,WeatherDisplay:10.37,2013-05-06 05:52:00,
2013-05-06 00:58:00,58.6,49.3,29.96,SE,135,0.0,0.0,71,0.00,OVC,FEW,0.00,WeatherDisplay:10.37,2013-05-06 05:58:00,
2013-05-06 01:03:00,58.6,49.6,29.96,SE,135,0.0,0.0,72,0.00,OVC,FEW,0.00,WeatherDisplay:10.37,2013-05-06 06:03:00,
2013-05-06 01:09:00,58.6,50.0,29.96,South,180,0.0,0.0,73,0.00,OVC,FEW,0.00,WeatherDisplay:10.37,2013-05-06 06:09:00,
2013-05-06 01:14:00,58.5,49.8,29.96,East,90,0.0,0.0,73,0.00,OVC,FEW,0.00,WeatherDisplay:10.37,2013-05-06 06:14:00,
2013-05-06 01:20:00,58.3,49.7,29.96,North,0,0.0,0.0,73,0.00,OVC,FEW,0.00,WeatherDisplay:10.37,2013-05-06 06:20:00,
2013-05-06 01:26:00,57.9,49.7,29.96,SSW,202,0.0,0.0,74,0.00,OVC,FEW,0.00,WeatherDisplay:10.37,2013-05-06 06:26:00,
2013-05-06 01:31:00,57.9,49.7,29.96,NE,45,0.0,0.0,74,0.00,OVC,FEW,0.00,WeatherDisplay:10.37,2013-05-06 06:31:00,
2013-05-06 01:37:00,57.9,49.7,29.96,East,90,0.0,0.0,74,0.00,OVC,FEW,0.00,WeatherDisplay:10.37,2013-05-06 06:37:00,
2013-05-06 01:42:00,58.1,49.9,29.96,South,180,0.0,0.0,74,0.00,OVC,FEW,0.00,WeatherDisplay:10.37,2013-05-06 06:42:00,
2013-05-06 01:48:00,57.7,49.5,29.96,NE,45,0.0,0.0,74,0.00,OVC,FEW,0.00,WeatherDisplay:10.37,2013-05-06 06:48:00,
2013-05-06 01:54:00,57.9,49.7,29.95,East,90,0.0,0.0,74,0.00,OVC,FEW,0.00,WeatherDisplay:10.37,2013-05-06 06:54:00,
2013-05-06 01:59:00,57.7,49.5,29.95,North,0,0.0,0.0,74,0.00,OVC,FEW,0.00,WeatherDisplay:10.37,2013-05-06 06:59:00,
2013-05-06 02:05:00,57.6,49.3,29.95,North,0,0.0,0.0,74,0.00,OVC,FEW,0.00,WeatherDisplay:10.37,2013-05-06 07:05:00,
2013-05-06 02:10:00,57.4,49.2,29.95,North,0,0.0,0.0,74,0.00,OVC,FEW,0.00,WeatherDisplay:10.37,2013-05-06 07:10:00,
2013-05-06 02:16:00,57.0,49.2,29.95,North,0,0.0,0.0,75,0.00,OVC,FEW,0.00,WeatherDisplay:10.37,2013-05-06 07:16:00,
2013-05-06 02:22:00,56.8,49.0,29.95,West,270,0.0,0.0,75,0.00,OVC,FEW,0.00,WeatherDisplay:10.37,2013-05-06 07:22:00,
2013-05-06 02:27:00,56.7,49.5,29.95,West,270,0.0,0.0,77,0.00,OVC,FEW,0.00,WeatherDisplay:10.37,2013-05-06 07:27:00,
2013-05-06 02:33:00,56.7,49.5,29.95,NW,315,0.0,0.0,77,0.00,OVC,FEW,0.00,WeatherDisplay:10.37,2013-05-06 07:33:00,
2013-05-06 02:38:00,56.5,49.4,29.95,West,270,0.0,0.0,77,0.00,OVC,FEW,0.00,WeatherDisplay:10.37,2013-05-06 07:38:00,
2013-05-06 02:44:00,56.5,49.7,29.95,West,270,0.0,0.0,78,0.00,OVC,FEW,0.00,WeatherDisplay:10.37,2013-05-06 07:44:00,
2013-05-06 02:50:00,55.9,49.5,29.95,NW,315,0.0,0.0,79,0.00,OVC,FEW,0.00,WeatherDisplay:10.37,2013-05-06 07:50:00,
2013-05-06 02:55:00,55.6,49.5,29.95,NW,315,0.0,0.0,80,0.00,OVC,FEW,0.00,WeatherDisplay:10.37,2013-05-06 07:55:00,
2013-05-06 03:01:00,55.4,49.3,29.94,NW,315,0.0,0.0,80,0.00,OVC,FEW,0.00,WeatherDisplay:10.37,2013-05-06 08:01:00,
2013-05-06 03:06:00,54.9,49.1,29.95,West,270,0.0,0.0,81,0.00,OVC,FEW,0.00,WeatherDisplay:10.37,2013-05-06 08:06:00,
2013-05-06 03:12:00,54.9,49.5,29.95,West,270,0.0,0.0,82,0.00,OVC,FEW,0.00,WeatherDisplay:10.37,2013-05-06 08:12:00,
2013-05-06 03:18:00,54.7,49.9,29.95,NW,315,0.0,0.0,84,0.00,OVC,FEW,0.00,WeatherDisplay:10.37,2013-05-06 08:18:00,
2013-05-06 03:23:00,54.5,49.8,29.95,NW,315,0.0,1.2,84,0.00,OVC,FEW,0.00,WeatherDisplay:10.37,2013-05-06 08:23:00,
2013-05-06 03:29:00,54.7,49.9,29.95,NW,315,0.0,0.0,84,0.00,OVC,FEW,0.00,WeatherDisplay:10.37,2013-05-06 08:29:00,
2013-05-06 03:34:00,54.9,50.1,29.95,NW,315,0.0,0.0,84,0.00,OVC,FEW,0.00,WeatherDisplay:10.37,2013-05-06 08:34:00,
2013-05-06 03:40:00,54.7,49.9,29.95,NW,315,0.0,0.0,84,0.00,OVC,FEW,0.00,WeatherDisplay:10.37,2013-05-06 08:40:00,
2013-05-06 03:46:00,54.1,49.4,29.96,NW,315,0.0,0.0,84,0.00,OVC,FEW,0.00,WeatherDisplay:10.37,2013-05-06 08:46:00,
2013-05-06 03:51:00,54.1,49.4,29.95,NW,315,0.0,0.0,84,0.00,OVC,FEW,0.00,WeatherDisplay:10.37,2013-05-06 08:51:00,
2013-05-06 03:57:00,54.0,49.2,29.95,NW,315,0.7,1.6,84,0.00,OVC,FEW,0.00,WeatherDisplay:10.37,2013-05-06 08:57:00,
2013-05-06 04:02:00,54.0,49.2,29.95,NW,315,0.7,1.2,84,0.00,OVC,FEW,0.00,WeatherDisplay:10.37,2013-05-06 09:02:00,
2013-05-06 04:08:00,54.0,49.2,29.95,South,180,0.0,0.0,84,0.00,OVC,FEW,0.00,WeatherDisplay:10.37,2013-05-06 09:08:00,
2013-05-06 04:14:00,53.8,49.1,29.96,North,0,0.0,1.2,84,0.00,OVC,FEW,0.00,WeatherDisplay:10.37,2013-05-06 09:14:00,
2013-05-06 04:19:00,53.6,48.9,29.95,NW,315,1.6,2.3,84,0.00,OVC,FEW,0.00,WeatherDisplay:10.37,2013-05-06 09:19:00,
2013-05-06 04:25:00,53.8,49.1,29.95,NW,315,1.6,3.5,84,0.00,OVC,FEW,0.00,WeatherDisplay:10.37,2013-05-06 09:25:00,
2013-05-06 04:30:00,54.0,49.2,29.96,NW,315,0.7,2.2,84,0.00,OVC,FEW,0.00,WeatherDisplay:10.37,2013-05-06 09:30:00,
2013-05-06 04:36:00,54.1,49.4,29.96,NW,315,0.0,1.2,84,0.00,OVC,FEW,0.00,WeatherDisplay:10.37,2013-05-06 09:36:00,
2013-05-06 04:42:00,54.0,49.2,29.96,NW,315,0.0,0.0,84,0.00,OVC,FEW,0.00,WeatherDisplay:10.37,2013-05-06 09:42:00,
2013-05-06 04:47:00,54.0,49.2,29.96,NW,315,0.0,2.3,84,0.00,OVC,FEW,0.00,WeatherDisplay:10.37,2013-05-06 09:47:00,
2013-05-06 04:53:00,54.0,49.2,29.96,SE,135,0.0,1.2,84,0.00,OVC,FEW,0.00,WeatherDisplay:10.37,2013-05-06 09:53:00,
2013-05-06 04:58:00,54.0,49.2,29.96,NW,315,1.6,3.5,84,0.00,OVC,FEW,0.00,WeatherDisplay:10.37,2013-05-06 09:58:00,
2013-05-06 05:04:00,54.1,49.4,29.96,North,0,0.7,3.5,84,0.00,OVC,FEW,0.00,WeatherDisplay:10.37,2013-05-06 10:04:00,
2013-05-06 05:10:00,54.1,49.4,29.96,North,0,0.7,3.5,84,0.00,OVC,FEW,0.00,WeatherDisplay:10.37,2013-05-06 10:10:00,
2013-05-06 05:15:00,54.3,49.6,29.96,NW,315,1.6,3.5,84,0.00,OVC,FEW,0.00,WeatherDisplay:10.37,2013-05-06 10:15:00,
2013-05-06 05:21:00,54.3,49.6,29.96,NW,315,1.6,3.5,84,0.00,OVC,FEW,0.00,WeatherDisplay:10.37,2013-05-06 10:21:00,
2013-05-06 05:26:00,54.3,49.6,29.97,North,0,1.6,3.8,84,0.00,OVC,FEW,0.00,WeatherDisplay:10.37,2013-05-06 10:26:00,
2013-05-06 05:32:00,54.5,49.8,29.97,North,0,1.6,2.3,84,0.00,OVC,FEW,0.00,WeatherDisplay:10.37,2013-05-06 10:32:00,
2013-05-06 05:38:00,54.3,49.6,29.97,NW,315,1.6,3.5,84,0.00,OVC,FEW,0.00,WeatherDisplay:10.37,2013-05-06 10:38:00,
2013-05-06 05:43:00,54.3,49.6,29.97,North,0,0.7,3.5,84,0.00,OVC,FEW,0.00,WeatherDisplay:10.37,2013-05-06 10:43:00,
2013-05-06 05:49:00,54.1,49.4,29.96,NW,315,2.2,3.5,84,0.00,OVC,FEW,0.00,WeatherDisplay:10.37,2013-05-06 10:49:00,
2013-05-06 05:54:00,54.1,49.4,29.96,North,0,2.2,4.6,84,0.00,OVC,FEW,0.00,WeatherDisplay:10.37,2013-05-06 10:54:00,
2013-05-06 06:00:00,54.1,49.4,29.96,North,0,1.6,4.6,84,0.00,OVC,FEW,0.00,WeatherDisplay:10.37,2013-05-06 11:00:00,
2013-05-06 06:06:00,54.3,49.6,29.96,NW,315,2.2,6.0,84,0.00,OVC,FEW,0.00,WeatherDisplay:10.37,2013-05-06 11:06:00,
2013-05-06 06:11:00,54.5,49.8,29.96,NE,45,2.2,6.9,84,0.00,OVC,FEW,0.00,WeatherDisplay:10.37,2013-05-06 11:11:00,
2013-05-06 06:17:00,54.7,49.9,29.97,NW,315,2.2,4.6,84,0.00,OVC,FEW,0.00,WeatherDisplay:10.37,2013-05-06 11:17:00,
2013-05-06 06:22:00,54.7,49.9,29.97,NNW,338,2.2,4.5,84,0.00,OVC,FEW,0.00,WeatherDisplay:10.37,2013-05-06 11:22:00,
2013-05-06 06:28:00,54.7,49.9,29.97,North,0,3.1,5.8,84,0.00,OVC,FEW,0.00,WeatherDisplay:10.37,2013-05-06 11:28:00,
2013-05-06 06:34:00,54.9,50.1,29.97,NW,315,2.2,5.8,84,0.00,OVC,FEW,0.00,WeatherDisplay:10.37,2013-05-06 11:34:00,
2013-05-06 06:39:00,54.9,50.1,29.97,North,0,3.1,5.8,84,0.00,OVC,FEW,0.00,WeatherDisplay:10.37,2013-05-06 11:39:00,
2013-05-06 06:45:00,55.0,50.3,29.97,North,0,0.0,4.6,84,0.00,OVC,FEW,0.00,WeatherDisplay:10.37,2013-05-06 11:45:00,
2013-05-06 06:50:00,55.2,50.1,29.98,NW,315,1.6,3.8,83,0.00,OVC,FEW,0.00,WeatherDisplay:10.37,2013-05-06 11:50:00,
2013-05-06 06:56:00,55.2,50.1,29.99,NE,45,0.0,1.2,83,0.00,OVC,FEW,0.00,WeatherDisplay:10.37,2013-05-06 11:56:00,
2013-05-06 07:02:00,55.2,50.1,29.99,NW,315,1.6,3.5,83,0.00,OVC,FEW,0.00,WeatherDisplay:10.37,2013-05-06 12:02:00,
2013-05-06 07:07:00,55.4,50.3,29.99,NW,315,1.6,3.5,83,0.00,OVC,FEW,0.00,WeatherDisplay:10.37,2013-05-06 12:07:00,
2013-05-06 07:13:00,55.6,50.2,29.99,NW,315,1.6,3.1,82,0.00,OVC,FEW,0.00,WeatherDisplay:10.37,2013-05-06 12:13:00,
2013-05-06 07:18:00,55.8,50.3,29.99,North,0,0.7,2.3,82,0.00,OVC,FEW,0.00,WeatherDisplay:10.37,2013-05-06 12:18:00,
2013-05-06 07:24:00,56.1,50.4,29.99,North,0,3.1,6.9,81,0.00,OVC,FEW,0.00,WeatherDisplay:10.37,2013-05-06 12:24:00,
2013-05-06 07:30:00,56.3,50.2,29.99,NW,315,1.6,3.5,80,0.00,OVC,FEW,0.00,WeatherDisplay:10.37,2013-05-06 12:30:00,
2013-05-06 07:35:00,56.7,50.2,29.99,North,0,1.6,3.5,79,0.00,OVC,FEW,0.00,WeatherDisplay:10.37,2013-05-06 12:35:00,
2013-05-06 07:41:00,57.0,50.6,29.99,North,0,1.6,3.5,79,0.00,OVC,FEW,0.00,WeatherDisplay:10.37,2013-05-06 12:41:00,
2013-05-06 07:46:00,57.4,50.9,29.99,North,0,0.7,2.3,79,0.00,OVC,FEW,0.00,WeatherDisplay:10.37,2013-05-06 12:46:00,
2013-05-06 07:52:00,57.9,50.4,29.99,North,0,2.2,3.5,76,0.00,OVC,FEW,0.00,WeatherDisplay:10.37,2013-05-06 12:52:00,
2013-05-06 07:58:00,58.5,50.9,30.00,NW,315,1.6,4.6,76,0.00,OVC,FEW,0.00,WeatherDisplay:10.37,2013-05-06 12:58:00,
2013-05-06 08:03:00,58.8,50.5,30.00,NW,315,0.7,4.6,74,0.00,OVC,FEW,0.00,WeatherDisplay:10.37,2013-05-06 13:03:00,
2013-05-06 08:09:00,59.5,51.2,30.00,NW,315,0.0,3.5,74,0.00,OVC,FEW,0.00,WeatherDisplay:10.37,2013-05-06 13:09:00,
2013-05-06 08:14:00,59.9,51.6,30.00,NE,45,0.0,3.5,74,0.00,OVC,FEW,0.00,WeatherDisplay:10.37,2013-05-06 13:14:00,
2013-05-06 08:20:00,60.1,50.6,30.00,North,0,3.1,6.9,71,0.00,OVC,FEW,0.00,WeatherDisplay:10.37,2013-05-06 13:20:00,
2013-05-06 08:26:00,60.6,50.4,30.00,North,0,3.1,5.8,69,0.00,OVC,FEW,0.00,WeatherDisplay:10.37,2013-05-06 13:26:00,
2013-05-06 08:31:00,61.0,50.3,30.00,NE,45,1.6,3.5,68,0.00,OVC,FEW,0.00,WeatherDisplay:10.37,2013-05-06 13:31:00,
2013-05-06 08:37:00,61.9,50.8,30.00,NW,315,1.6,4.6,67,0.00,OVC,FEW,0.00,WeatherDisplay:10.37,2013-05-06 13:37:00,
2013-05-06 08:42:00,62.2,50.3,30.00,North,0,3.8,6.0,65,0.00,OVC,FEW,0.00,WeatherDisplay:10.37,2013-05-06 13:42:00,
2013-05-06 08:48:00,62.4,50.5,30.00,North,0,2.2,6.9,65,0.00,OVC,FEW,0.00,WeatherDisplay:10.37,2013-05-06 13:48:00,
2013-05-06 08:54:00,62.8,50.8,30.00,North,0,3.8,8.1,65,0.00,OVC,FEW,0.00,WeatherDisplay:10.37,2013-05-06 13:54:00,
2013-05-06 08:59:00,63.5,50.2,30.00,NW,315,4.5,6.9,62,0.00,OVC,FEW,0.00,WeatherDisplay:10.37,2013-05-06 13:59:00,
2013-05-06 09:05:00,63.5,50.2,30.00,North,0,5.4,10.7,62,0.00,OVC,FEW,0.00,WeatherDisplay:10.37,2013-05-06 14:05:00,
2013-05-06 09:10:00,64.0,50.8,30.00,NW,315,3.8,6.9,62,0.00,OVC,FEW,0.00,WeatherDisplay:10.37,2013-05-06 14:10:00,
2013-05-06 09:16:00,64.8,51.0,30.00,East,90,3.1,8.1,61,0.00,OVC,FEW,0.00,WeatherDisplay:10.37,2013-05-06 14:16:00,
2013-05-06 09:22:00,65.5,50.3,30.00,North,0,4.5,9.2,58,0.00,OVC,FEW,0.00,WeatherDisplay:10.37,2013-05-06 14:22:00,
2013-05-06 09:27:00,65.3,49.7,30.00,NW,315,6.9,12.7,57,0.00,OVC,FEW,0.00,WeatherDisplay:10.37,2013-05-06 14:27:00,
2013-05-06 09:33:00,65.8,50.2,30.01,NW,315,3.8,8.1,57,0.00,OVC,FEW,0.00,WeatherDisplay:10.37,2013-05-06 14:33:00,
2013-05-06 09:38:00,66.0,48.9,30.01,WNW,292,4.5,10.4,54,0.00,OVC,FEW,0.00,WeatherDisplay:10.37,2013-05-06 14:38:00,
2013-05-06 09:44:00,66.4,50.2,30.00,North,0,5.4,10.7,56,0.00,OVC,FEW,0.00,WeatherDisplay:10.37,2013-05-06 14:44:00,
2013-05-06 09:50:00,66.4,50.2,30.00,WNW,292,3.8,8.1,56,0.00,OVC,FEW,0.00,WeatherDisplay:10.37,2013-05-06 14:50:00,
2013-05-06 09:55:00,67.1,50.4,30.00,NW,315,5.4,10.4,55,0.00,OVC,FEW,0.00,WeatherDisplay:10.37,2013-05-06 14:55:00,
2013-05-06 10:01:00,67.6,50.9,30.00,ENE,68,2.2,5.8,55,0.00,OVC,FEW,0.00,WeatherDisplay:10.37,2013-05-06 15:01:00,
2013-05-06 10:06:00,68.2,49.9,30.00,East,90,3.8,8.1,52,0.00,OVC,FEW,0.00,WeatherDisplay:10.37,2013-05-06 15:06:00,
2013-05-06 10:12:00,68.2,49.4,30.00,North,0,3.1,9.2,51,0.00,OVC,FEW,0.00,WeatherDisplay:10.37,2013-05-06 15:12:00,
2013-05-06 10:18:00,67.6,48.9,30.00,North,0,7.6,13.0,51,0.00,OVC,FEW,0.00,WeatherDisplay:10.37,2013-05-06 15:18:00,
2013-05-06 10:23:00,68.2,49.4,30.00,North,0,4.5,9.2,51,0.00,OVC,FEW,0.00,WeatherDisplay:10.37,2013-05-06 15:23:00,
2013-05-06 10:29:00,68.7,49.3,29.99,NW,315,4.5,8.3,50,0.00,OVC,FEW,0.00,WeatherDisplay:10.37,2013-05-06 15:29:00,
2013-05-06 10:34:00,69.3,49.8,30.00,NE,45,3.1,6.0,50,0.00,OVC,FEW,0.00,WeatherDisplay:10.37,2013-05-06 15:34:00,
2013-05-06 10:40:00,70.3,48.6,30.00,NE,45,2.2,5.8,46,0.00,OVC,FEW,0.00,WeatherDisplay:10.37,2013-05-06 15:40:00,
2013-05-06 10:46:00,69.4,47.2,29.99,North,0,6.0,9.8,45,0.00,OVC,FEW,0.00,WeatherDisplay:10.37,2013-05-06 15:46:00,
2013-05-06 10:51:00,68.9,47.8,29.99,NW,315,7.6,12.7,47,0.00,OVC,FEW,0.00,WeatherDisplay:10.37,2013-05-06 15:51:00,
2013-05-06 10:57:00,69.3,48.2,30.00,NE,45,3.1,10.4,47,0.00,OVC,FEW,0.00,WeatherDisplay:10.37,2013-05-06 15:57:00,
2013-05-06 11:02:00,70.0,48.2,29.99,North,0,2.2,8.1,46,0.00,OVC,FEW,0.00,WeatherDisplay:10.37,2013-05-06 16:02:00,
2013-05-06 11:08:00,71.8,48.7,29.99,North,0,3.1,6.9,44,0.00,OVC,FEW,0.00,WeatherDisplay:10.37,2013-05-06 16:08:00,
2013-05-06 11:14:00,71.6,46.0,29.99,North,0,4.5,10.7,40,0.00,OVC,FEW,0.00,WeatherDisplay:10.37,2013-05-06 16:14:00,
2013-05-06 11:19:00,71.1,47.4,29.99,NW,315,6.0,10.4,43,0.00,OVC,FEW,0.00,WeatherDisplay:10.37,2013-05-06 16:19:00,
2013-05-06 11:25:00,70.9,46.6,29.99,NW,315,4.5,10.4,42,0.00,OVC,FEW,0.00,WeatherDisplay:10.37,2013-05-06 16:25:00,
2013-05-06 11:30:00,72.3,46.6,29.99,North,0,3.1,10.4,40,0.00,OVC,FEW,0.00,WeatherDisplay:10.37,2013-05-06 16:30:00,
2013-05-06 11:36:00,73.0,45.9,29.99,East,90,2.2,4.6,38,0.00,OVC,FEW,0.00,WeatherDisplay:10.37,2013-05-06 16:36:00,
2013-05-06 11:42:00,73.0,44.5,29.98,NE,45,3.1,5.8,36,0.00,OVC,FEW,0.00,WeatherDisplay:10.37,2013-05-06 16:42:00,
2013-05-06 11:47:00,73.0,43.8,29.99,NW,315,4.5,7.6,35,0.00,OVC,FEW,0.00,WeatherDisplay:10.37,2013-05-06 16:47:00,
2013-05-06 11:53:00,73.0,45.9,29.98,NW,315,3.8,8.3,38,0.00,OVC,FEW,0.00,WeatherDisplay:10.37,2013-05-06 16:53:00,
2013-05-06 11:58:00,73.4,46.9,29.98,North,0,1.6,3.5,39,0.00,OVC,FEW,0.00,WeatherDisplay:10.37,2013-05-06 16:58:00,
2013-05-06 12:04:00,73.6,45.7,29.98,East,90,3.1,9.2,37,0.00,OVC,FEW,0.00,WeatherDisplay:10.37,2013-05-06 17:04:00,
2013-05-06 12:10:00,73.8,45.9,29.97,NE,45,2.2,8.1,37,0.00,OVC,FEW,0.00,WeatherDisplay:10.37,2013-05-06 17:10:00,
2013-05-06 12:15:00,73.9,44.5,29.97,NE,45,6.9,12.7,35,0.00,OVC,FEW,0.00,WeatherDisplay:10.37,2013-05-06 17:15:00,
2013-05-06 12:21:00,74.1,45.5,29.97,North,0,3.1,8.1,36,0.00,OVC,FEW,0.00,WeatherDisplay:10.37,2013-05-06 17:21:00,
2013-05-06 12:26:00,74.7,45.9,29.97,North,0,5.4,12.7,36,0.00,OVC,FEW,0.00,WeatherDisplay:10.37,2013-05-06 17:26:00,
2013-05-06 12:32:00,75.2,47.1,29.97,NE,45,1.6,4.6,37,0.00,OVC,FEW,0.00,WeatherDisplay:10.37,2013-05-06 17:32:00,
2013-05-06 12:38:00,76.5,48.2,29.96,North,0,2.2,8.1,37,0.00,OVC,FEW,0.00,WeatherDisplay:10.37,2013-05-06 17:38:00,
2013-05-06 12:43:00,76.3,46.6,29.96,East,90,3.8,8.1,35,0.00,OVC,FEW,0.00,WeatherDisplay:10.37,2013-05-06 17:43:00,
2013-05-06 12:49:00,75.9,45.5,29.96,North,0,3.1,10.4,34,0.00,OVC,FEW,0.00,WeatherDisplay:10.37,2013-05-06 17:49:00,
2013-05-06 12:54:00,76.5,46.0,29.96,NW,315,4.5,8.3,34,0.00,OVC,FEW,0.00,WeatherDisplay:10.37,2013-05-06 17:54:00,
2013-05-06 13:00:00,76.8,46.3,29.96,WNW,292,3.1,5.8,34,0.00,OVC,FEW,0.00,WeatherDisplay:10.37,2013-05-06 18:00:00,
2013-05-06 13:06:00,77.0,44.0,29.95,NE,45,2.2,8.1,31,0.00,OVC,FEW,0.00,WeatherDisplay:10.37,2013-05-06 18:06:00,
2013-05-06 13:11:00,77.2,45.8,29.95,SE,135,1.6,8.1,33,0.00,OVC,FEW,0.00,WeatherDisplay:10.37,2013-05-06 18:11:00,
2013-05-06 13:17:00,77.7,44.7,29.95,NE,45,2.2,5.8,31,0.00,OVC,FEW,0.00,WeatherDisplay:10.37,2013-05-06 18:17:00,
2013-05-06 13:22:00,78.1,43.2,29.95,NE,45,2.2,5.8,29,0.00,OVC,FEW,0.00,WeatherDisplay:10.37,2013-05-06 18:22:00,
2013-05-06 13:28:00,78.6,42.8,29.95,East,90,2.2,6.9,28,0.00,OVC,FEW,0.00,WeatherDisplay:10.37,2013-05-06 18:28:00,
2013-05-06 13:34:00,78.6,44.6,29.95,NE,45,3.1,5.8,30,0.00,OVC,FEW,0.00,WeatherDisplay:10.37,2013-05-06 18:34:00,
2013-05-06 13:39:00,78.3,44.3,29.95,NE,45,3.1,8.1,30,0.00,OVC,FEW,0.00,WeatherDisplay:10.37,2013-05-06 18:39:00,
2013-05-06 13:45:00,78.1,43.2,29.95,North,0,1.6,6.9,29,0.00,OVC,FEW,0.00,WeatherDisplay:10.37,2013-05-06 18:45:00,
2013-05-06 13:50:00,78.1,42.3,29.95,North,0,3.8,5.8,28,0.00,OVC,FEW,0.00,WeatherDisplay:10.37,2013-05-06 18:50:00,
2013-05-06 13:56:00,78.1,43.2,29.95,East,90,2.2,5.8,29,0.00,OVC,FEW,0.00,WeatherDisplay:10.37,2013-05-06 18:56:00,
2013-05-06 14:02:00,78.4,42.6,29.95,SE,135,2.2,5.8,28,0.00,OVC,FEW,0.00,WeatherDisplay:10.37,2013-05-06 19:02:00,
2013-05-06 14:07:00,77.7,42.0,29.95,NE,45,1.6,6.9,28,0.00,OVC,FEW,0.00,WeatherDisplay:10.37,2013-05-06 19:07:00,
2013-05-06 14:13:00,77.7,42.9,29.94,East,90,3.8,6.9,29,0.00,OVC,FEW,0.00,WeatherDisplay:10.37,2013-05-06 19:13:00,
2013-05-06 14:18:00,77.5,43.6,29.95,SE,135,0.7,4.6,30,0.00,OVC,FEW,0.00,WeatherDisplay:10.37,2013-05-06 19:18:00,
2013-05-06 14:24:00,78.3,43.4,29.95,ENE,68,3.1,6.9,29,0.00,OVC,FEW,0.00,WeatherDisplay:10.37,2013-05-06 19:24:00,
2013-05-06 14:30:00,77.7,42.0,29.94,East,90,2.2,6.9,28,0.00,OVC,FEW,0.00,WeatherDisplay:10.37,2013-05-06 19:30:00,
2013-05-06 14:35:00,78.1,42.3,29.93,NE,45,4.5,9.2,28,0.00,OVC,FEW,0.00,WeatherDisplay:10.37,2013-05-06 19:35:00,
2013-05-06 14:41:00,78.3,44.3,29.94,NE,45,3.1,12.7,30,0.00,OVC,FEW,0.00,WeatherDisplay:10.37,2013-05-06 19:41:00,
2013-05-06 14:46:00,78.1,41.4,29.93,East,90,3.1,8.1,27,0.00,OVC,FEW,0.00,WeatherDisplay:10.37,2013-05-06 19:46:00,
2013-05-06 14:52:00,78.1,43.2,29.93,NE,45,3.1,6.9,29,0.00,OVC,FEW,0.00,WeatherDisplay:10.37,2013-05-06 19:52:00,
2013-05-06 14:58:00,78.6,43.7,29.93,NE,45,2.2,5.8,29,0.00,OVC,FEW,0.00,WeatherDisplay:10.37,2013-05-06 19:58:00,
2013-05-06 15:03:00,79.0,43.1,29.93,ENE,68,2.2,6.9,28,0.00,OVC,FEW,0.00,WeatherDisplay:10.37,2013-05-06 20:03:00,
2013-05-06 15:09:00,78.8,42.0,29.93,NE,45,2.2,5.8,27,0.00,OVC,FEW,0.00,WeatherDisplay:10.37,2013-05-06 20:09:00,
2013-05-06 15:14:00,78.4,44.4,29.93,East,90,0.7,5.8,30,0.00,OVC,FEW,0.00,WeatherDisplay:10.37,2013-05-06 20:14:00,
2013-05-06 15:20:00,78.6,44.6,29.93,NE,45,3.8,9.2,30,0.00,OVC,FEW,0.00,WeatherDisplay:10.37,2013-05-06 20:20:00,
2013-05-06 15:26:00,79.2,43.2,29.93,NE,45,2.2,6.0,28,0.00,OVC,FEW,0.00,WeatherDisplay:10.37,2013-05-06 20:26:00,
2013-05-06 15:31:00,79.3,42.4,29.93,West,270,3.8,10.4,27,0.00,OVC,FEW,0.00,WeatherDisplay:10.37,2013-05-06 20:31:00,
2013-05-06 15:37:00,79.2,42.3,29.93,East,90,0.7,6.9,27,0.00,OVC,FEW,0.00,WeatherDisplay:10.37,2013-05-06 20:37:00,
2013-05-06 15:42:00,79.3,41.5,29.93,NE,45,3.1,6.9,26,0.00,OVC,FEW,0.00,WeatherDisplay:10.37,2013-05-06 20:42:00,
2013-05-06 15:48:00,79.2,42.3,29.92,North,0,2.2,8.1,27,0.00,OVC,FEW,0.00,WeatherDisplay:10.37,2013-05-06 20:48:00,
2013-05-06 15:54:00,80.6,43.5,29.93,East,90,0.7,2.3,27,0.00,OVC,FEW,0.00,WeatherDisplay:10.37,2013-05-06 20:54:00,
2013-05-06 15:59:00,80.2,41.2,29.92,NE,45,1.6,5.8,25,0.00,OVC,FEW,0.00,WeatherDisplay:10.37,2013-05-06 20:59:00,
2013-05-06 16:05:00,79.9,43.9,29.92,NE,45,3.1,5.8,28,0.00,OVC,FEW,0.00,WeatherDisplay:10.37,2013-05-06 21:05:00,
2013-05-06 16:10:00,79.5,41.6,29.92,NW,315,2.2,6.9,26,0.00,OVC,FEW,0.00,WeatherDisplay:10.37,2013-05-06 21:10:00,
2013-05-06 16:16:00,79.5,40.6,29.92,NW,315,4.5,8.3,25,0.00,OVC,FEW,0.00,WeatherDisplay:10.37,2013-05-06 21:16:00,
2013-05-06 16:22:00,79.0,40.1,29.92,NNE,22,3.1,5.8,25,0.00,OVC,FEW,0.00,WeatherDisplay:10.37,2013-05-06 21:22:00,
2013-05-06 16:27:00,79.3,41.5,29.92,North,0,0.7,5.8,26,0.00,OVC,FEW,0.00,WeatherDisplay:10.37,2013-05-06 21:27:00,
2013-05-06 16:33:00,79.0,40.1,29.92,West,270,3.8,9.2,25,0.00,OVC,FEW,0.00,WeatherDisplay:10.37,2013-05-06 21:33:00,
2013-05-06 16:38:00,78.6,39.8,29.92,North,0,3.8,8.1,25,0.00,OVC,FEW,0.00,WeatherDisplay:10.37,2013-05-06 21:38:00,
2013-05-06 16:44:00,78.8,42.9,29.92,NE,45,1.6,3.5,28,0.00,OVC,FEW,0.00,WeatherDisplay:10.37,2013-05-06 21:44:00,
2013-05-06 16:50:00,79.3,40.4,29.92,East,90,1.6,3.5,25,0.00,OVC,FEW,0.00,WeatherDisplay:10.37,2013-05-06 21:50:00,
2013-05-06 16:55:00,79.2,40.3,29.92,East,90,2.2,5.8,25,0.00,OVC,FEW,0.00,WeatherDisplay:10.37,2013-05-06 21:55:00,
2013-05-06 17:01:00,79.0,42.1,29.91,NNW,338,0.0,5.8,27,0.00,OVC,FEW,0.00,WeatherDisplay:10.37,2013-05-06 22:01:00,
2013-05-06 17:06:00,77.5,38.9,29.92,North,0,4.5,8.1,25,0.00,OVC,FEW,0.00,WeatherDisplay:10.37,2013-05-06 22:06:00,
2013-05-06 17:12:00,77.0,40.4,29.92,NW,315,1.6,5.8,27,0.00,OVC,FEW,0.00,WeatherDisplay:10.37,2013-05-06 22:12:00,
2013-05-06 17:18:00,77.0,41.4,29.92,NW,315,0.7,6.9,28,0.00,OVC,FEW,0.00,WeatherDisplay:10.37,2013-05-06 22:18:00,
2013-05-06 17:23:00,76.5,40.0,29.91,North,0,0.0,3.5,27,0.00,OVC,FEW,0.00,WeatherDisplay:10.37,2013-05-06 22:23:00,
2013-05-06 17:29:00,76.3,41.7,29.91,East,90,0.0,2.3,29,0.00,OVC,FEW,0.00,WeatherDisplay:10.37,2013-05-06 22:29:00,
2013-05-06 17:34:00,75.9,40.5,29.92,ENE,68,1.6,3.8,28,0.00,OVC,FEW,0.00,WeatherDisplay:10.37,2013-05-06 22:34:00,
2013-05-06 17:40:00,75.6,41.1,29.91,NE,45,1.6,4.6,29,0.00,OVC,FEW,0.00,WeatherDisplay:10.37,2013-05-06 22:40:00,
2013-05-06 17:46:00,75.0,39.7,29.92,North,0,2.2,4.5,28,0.00,OVC,FEW,0.00,WeatherDisplay:10.37,2013-05-06 22:46:00,
2013-05-06 17:51:00,74.8,39.5,29.92,East,90,0.0,2.3,28,0.00,OVC,FEW,0.00,WeatherDisplay:10.37,2013-05-06 22:51:00,
2013-05-06 17:57:00,74.5,38.3,29.92,NE,45,0.7,3.5,27,0.00,OVC,FEW,0.00,WeatherDisplay:10.37,2013-05-06 22:57:00,
2013-05-06 18:02:00,74.8,38.6,29.92,East,90,2.2,4.6,27,0.00,OVC,FEW,0.00,WeatherDisplay:10.37,2013-05-06 23:02:00,
2013-05-06 18:08:00,74.5,38.3,29.92,North,0,3.1,5.8,27,0.00,OVC,FEW,0.00,WeatherDisplay:10.37,2013-05-06 23:08:00,
2013-05-06 18:14:00,74.5,39.2,29.92,East,90,0.7,3.5,28,0.00,OVC,FEW,0.00,WeatherDisplay:10.37,2013-05-06 23:14:00,
2013-05-06 18:19:00,74.1,38.9,29.92,NE,45,1.6,6.9,28,0.00,OVC,FEW,0.00,WeatherDisplay:10.37,2013-05-06 23:19:00,
2013-05-06 18:25:00,74.1,38.9,29.92,NW,315,0.7,3.5,28,0.00,OVC,FEW,0.00,WeatherDisplay:10.37,2013-05-06 23:25:00,
2013-05-06 18:30:00,74.1,38.9,29.92,NE,45,0.7,3.5,28,0.00,OVC,FEW,0.00,WeatherDisplay:10.37,2013-05-06 23:30:00,
2013-05-06 18:36:00,73.9,38.8,29.92,NE,45,0.7,3.5,28,0.00,OVC,FEW,0.00,WeatherDisplay:10.37,2013-05-06 23:36:00,
2013-05-06 18:42:00,73.9,40.5,29.92,NE,45,2.2,3.8,30,0.00,OVC,FEW,0.00,WeatherDisplay:10.37,2013-05-06 23:42:00,
2013-05-06 18:47:00,73.6,39.4,29.92,NE,45,0.7,3.5,29,0.00,OVC,FEW,0.00,WeatherDisplay:10.37,2013-05-06 23:47:00,
2013-05-06 18:53:00,73.4,40.1,29.93,NW,315,0.0,3.5,30,0.00,OVC,FEW,0.00,WeatherDisplay:10.37,2013-05-06 23:53:00,
2013-05-06 18:58:00,73.2,39.9,29.92,North,0,1.6,3.5,30,0.00,OVC,FEW,0.00,WeatherDisplay:10.37,2013-05-06 23:58:00,
2013-05-06 19:04:00,72.9,40.4,29.93,North,0,0.7,3.5,31,0.00,OVC,FEW,0.00,WeatherDisplay:10.37,2013-05-07 00:04:00,
2013-05-06 19:10:00,72.5,40.1,29.92,West,270,1.6,3.5,31,0.00,OVC,FEW,0.00,WeatherDisplay:10.37,2013-05-07 00:10:00,
2013-05-06 19:15:00,72.3,40.0,29.92,North,0,0.7,4.6,31,0.00,OVC,FEW,0.00,WeatherDisplay:10.37,2013-05-07 00:15:00,
2013-05-06 19:21:00,72.1,40.6,29.93,North,0,0.0,1.2,32,0.00,OVC,FEW,0.00,WeatherDisplay:10.37,2013-05-07 00:21:00,
2013-05-06 19:26:00,71.6,40.2,29.93,NE,45,0.0,2.3,32,0.00,OVC,FEW,0.00,WeatherDisplay:10.37,2013-05-07 00:26:00,
2013-05-06 19:32:00,71.4,40.0,29.93,North,0,0.0,1.2,32,0.00,OVC,FEW,0.00,WeatherDisplay:10.37,2013-05-07 00:32:00,
2013-05-06 19:38:00,71.2,39.9,29.93,North,0,0.0,2.3,32,0.00,OVC,FEW,0.00,WeatherDisplay:10.37,2013-05-07 00:38:00,
2013-05-06 19:43:00,71.1,40.5,29.93,NE,45,0.0,1.2,33,0.00,OVC,FEW,0.00,WeatherDisplay:10.37,2013-05-07 00:43:00,
2013-05-06 19:49:00,70.7,40.2,29.93,North,0,0.0,1.2,33,0.00,OVC,FEW,0.00,WeatherDisplay:10.37,2013-05-07 00:49:00,
2013-05-06 19:54:00,70.5,40.8,29.93,NE,45,0.0,1.2,34,0.00,OVC,FEW,0.00,WeatherDisplay:10.37,2013-05-07 00:54:00,
2013-05-06 20:00:00,70.3,40.6,29.93,North,0,0.0,1.2,34,0.00,OVC,FEW,0.00,WeatherDisplay:10.37,2013-05-07 01:00:00,
2013-05-06 20:06:00,70.2,40.5,29.93,North,0,0.7,2.3,34,0.00,OVC,FEW,0.00,WeatherDisplay:10.37,2013-05-07 01:06:00,
2013-05-06 20:11:00,70.0,41.1,29.93,North,0,0.7,2.3,35,0.00,OVC,FEW,0.00,WeatherDisplay:10.37,2013-05-07 01:11:00,
2013-05-06 20:17:00,69.8,40.9,29.93,North,0,0.0,1.2,35,0.00,OVC,FEW,0.00,WeatherDisplay:10.37,2013-05-07 01:17:00,
2013-05-06 20:22:00,69.6,41.5,29.93,North,0,0.0,1.6,36,0.00,OVC,FEW,0.00,WeatherDisplay:10.37,2013-05-07 01:22:00,
2013-05-06 20:28:00,69.6,41.5,29.93,North,0,0.0,1.2,36,0.00,OVC,FEW,0.00,WeatherDisplay:10.37,2013-05-07 01:28:00,
2013-05-06 20:34:00,69.4,41.3,29.93,NE,45,0.0,1.2,36,0.00,OVC,FEW,0.00,WeatherDisplay:10.37,2013-05-07 01:34:00,
2013-05-06 20:39:00,69.4,41.3,29.94,North,0,0.0,1.2,36,0.00,OVC,FEW,0.00,WeatherDisplay:10.37,2013-05-07 01:39:00,
2013-05-06 20:45:00,69.3,41.2,29.94,NW,315,0.0,2.3,36,0.00,OVC,FEW,0.00,WeatherDisplay:10.37,2013-05-07 01:45:00,
2013-05-06 20:50:00,69.3,41.2,29.94,NE,45,0.0,0.0,36,0.00,OVC,FEW,0.00,WeatherDisplay:10.37,2013-05-07 01:50:00,
2013-05-06 20:56:00,69.1,41.0,29.94,NE,45,0.0,0.0,36,0.00,OVC,FEW,0.00,WeatherDisplay:10.37,2013-05-07 01:56:00,
2013-05-06 21:02:00,69.3,41.2,29.94,NE,45,0.0,0.0,36,0.00,OVC,FEW,0.00,WeatherDisplay:10.37,2013-05-07 02:02:00,
2013-05-06 21:07:00,69.3,41.2,29.94,NE,45,0.0,0.0,36,0.00,OVC,FEW,0.00,WeatherDisplay:10.37,2013-05-07 02:07:00,
2013-05-06 21:13:00,69.3,41.2,29.94,NE,45,0.0,0.0,36,0.00,OVC,FEW,0.00,WeatherDisplay:10.37,2013-05-07 02:13:00,
2013-05-06 21:18:00,69.1,41.0,29.95,NE,45,0.0,0.0,36,0.00,OVC,FEW,0.00,WeatherDisplay:10.37,2013-05-07 02:18:00,
2013-05-06 21:24:00,68.9,40.8,29.95,NE,45,0.0,0.0,36,0.00,OVC,FEW,0.00,WeatherDisplay:10.37,2013-05-07 02:24:00,
2013-05-06 21:30:00,68.7,41.4,29.95,NE,45,0.0,0.0,37,0.00,OVC,FEW,0.00,WeatherDisplay:10.37,2013-05-07 02:30:00,
2013-05-06 21:35:00,68.5,41.2,29.95,North,0,0.0,0.0,37,0.00,OVC,FEW,0.00,WeatherDisplay:10.37,2013-05-07 02:35:00,
2013-05-06 21:41:00,68.4,41.1,29.95,North,0,0.0,0.0,37,0.00,OVC,FEW,0.00,WeatherDisplay:10.37,2013-05-07 02:41:00,
2013-05-06 21:46:00,68.4,41.1,29.95,North,0,0.0,0.0,37,0.00,OVC,FEW,0.00,WeatherDisplay:10.37,2013-05-07 02:46:00,
2013-05-06 21:52:00,68.4,41.8,29.95,North,0,0.0,0.0,38,0.00,OVC,FEW,0.00,WeatherDisplay:10.37,2013-05-07 02:52:00,
2013-05-06 21:58:00,68.2,41.6,29.95,North,0,0.0,0.0,38,0.00,OVC,FEW,0.00,WeatherDisplay:10.37,2013-05-07 02:58:00,
2013-05-06 22:03:00,68.2,42.3,29.95,North,0,0.0,0.0,39,0.00,OVC,FEW,0.00,WeatherDisplay:10.37,2013-05-07 03:03:00,
2013-05-06 22:09:00,68.0,41.4,29.95,North,0,0.0,1.2,38,0.00,OVC,FEW,0.00,WeatherDisplay:10.37,2013-05-07 03:09:00,
2013-05-06 22:14:00,68.0,41.4,29.95,North,0,0.0,1.2,38,0.00,OVC,FEW,0.00,WeatherDisplay:10.37,2013-05-07 03:14:00,
2013-05-06 22:20:00,68.0,42.1,29.95,North,0,0.0,0.0,39,0.00,OVC,FEW,0.00,WeatherDisplay:10.37,2013-05-07 03:20:00,
2013-05-06 22:26:00,67.6,42.4,29.95,North,0,0.0,0.0,40,0.00,OVC,FEW,0.00,WeatherDisplay:10.37,2013-05-07 03:26:00,
2013-05-06 22:31:00,67.5,43.6,29.94,North,0,0.0,0.0,42,0.00,OVC,FEW,0.00,WeatherDisplay:10.37,2013-05-07 03:31:00,
2013-05-06 22:37:00,67.1,43.8,29.95,North,0,0.0,0.0,43,0.00,OVC,FEW,0.00,WeatherDisplay:10.37,2013-05-07 03:37:00,
2013-05-06 22:42:00,66.7,43.5,29.95,North,0,0.0,0.0,43,0.00,OVC,FEW,0.00,WeatherDisplay:10.37,2013-05-07 03:42:00,
2013-05-06 22:48:00,66.6,44.5,29.95,North,0,0.0,0.0,45,0.00,OVC,FEW,0.00,WeatherDisplay:10.37,2013-05-07 03:48:00,
2013-05-06 22:54:00,66.2,44.8,29.95,North,0,0.0,0.0,46,0.00,OVC,FEW,0.00,WeatherDisplay:10.37,2013-05-07 03:54:00,
2013-05-06 22:59:00,65.8,45.0,29.95,North,0,0.0,0.0,47,0.00,OVC,FEW,0.00,WeatherDisplay:10.37,2013-05-07 03:59:00,
2013-05-06 23:01:00,65.8,45.0,29.95,North,0,0.0,0.0,47,0.00,OVC,FEW,0.00,WeatherDisplay:10.37,2013-05-07 04:01:00,
2013-05-06 23:02:00,65.7,45.4,29.95,North,0,0.0,0.0,48,0.00,OVC,FEW,0.00,WeatherDisplay:10.37,2013-05-07 04:02:00,
2013-05-06 23:04:00,65.5,44.7,29.95,North,0,0.0,0.0,47,0.00,OVC,FEW,0.00,WeatherDisplay:10.37,2013-05-07 04:04:00,
2013-05-06 23:05:00,65.5,44.7,29.95,North,0,0.0,0.0,47,0.00,OVC,FEW,0.00,WeatherDisplay:10.37,2013-05-07 04:05:00,
2013-05-06 23:06:00,65.5,44.7,29.95,NE,45,0.0,0.0,47,0.00,OVC,FEW,0.00,WeatherDisplay:10.37,2013-05-07 04:06:00,
2013-05-06 23:12:00,64.9,45.8,29.95,East,90,0.0,0.0,50,0.00,OVC,FEW,0.00,WeatherDisplay:10.37,2013-05-07 04:12:00,
2013-05-06 23:18:00,64.4,45.3,29.95,NW,315,0.0,0.0,50,0.00,OVC,FEW,0.00,WeatherDisplay:10.37,2013-05-07 04:18:00,
2013-05-06 23:23:00,64.2,45.7,29.95,NW,315,0.0,0.0,51,0.00,OVC,FEW,0.00,WeatherDisplay:10.37,2013-05-07 04:23:00,
2013-05-06 23:29:00,63.3,45.4,29.95,West,270,0.0,0.0,52,0.00,OVC,FEW,0.00,WeatherDisplay:10.37,2013-05-07 04:29:00,
2013-05-06 23:34:00,62.8,45.9,29.95,West,270,0.0,0.0,54,0.00,OVC,FEW,0.00,WeatherDisplay:10.37,2013-05-07 04:34:00,
2013-05-06 23:40:00,62.6,46.2,29.95,West,270,0.0,0.0,55,0.00,OVC,FEW,0.00,WeatherDisplay:10.37,2013-05-07 04:40:00,
2013-05-06 23:46:00,62.6,46.7,29.95,SW,225,0.0,0.0,56,0.00,OVC,FEW,0.00,WeatherDisplay:10.37,2013-05-07 04:46:00,
2013-05-06 23:51:00,62.6,46.7,29.95,West,270,0.0,0.0,56,0.00,OVC,FEW,0.00,WeatherDisplay:10.37,2013-05-07 04:51:00,
2013-05-06 23:57:00,62.4,46.5,29.96,West,270,0.0,0.0,56,0.00,OVC,FEW,0.00,WeatherDisplay:10.37,2013-05-07 04:57:00,